Terminal Aerodrome Forecast
Issued by NWS

Home | Current Version | Previous Version | Text Only | Print | Product List | Glossary On
Versions: 1 2 3 4 5 6 7 8 9 10 11 12 13
000
FTUS45 KFGZ 242320
TAFGCN
TAF
KGCN 242320Z 2500/2524 22020G32KT P6SM SCT080
     FM250200 23010KT P6SM SKC
     FM250400 VRB03KT P6SM SKC
     FM251600 22012G21KT P6SM BKN080=

USA.gov is the U.S. government's official web portal to all federal, state and local government web resources and services.